createdAt,value
2023-03-29T00:00:29.719Z,57.39
2023-03-29T00:03:15.650Z,57.19
2023-03-29T00:05:44.866Z,57.18
2023-03-29T00:08:14.695Z,56.88
2023-03-29T00:10:42.418Z,57.42
2023-03-29T00:13:09.265Z,56.68
2023-03-29T00:15:36.270Z,57.06
2023-03-29T00:18:03.046Z,56.25
2023-03-29T00:20:30.169Z,56.04
2023-03-29T00:22:57.010Z,56.29
2023-03-29T00:25:24.320Z,56.67
2023-03-29T00:27:51.150Z,57.41
2023-03-29T00:30:18.243Z,58.14
2023-03-29T00:32:45.976Z,58.42
2023-03-29T00:35:13.072Z,59.21
2023-03-29T00:37:41.320Z,60.11
2023-03-29T00:40:11.700Z,61.09
2023-03-29T00:42:38.525Z,61.34
2023-03-29T00:45:23.429Z,61.79
2023-03-29T00:47:57.248Z,62.43
2023-03-29T00:50:39.388Z,62.80
2023-03-29T00:53:14.766Z,63.32
2023-03-29T00:55:59.129Z,63.18
2023-03-29T00:58:30.652Z,64.14
2023-03-29T01:01:08.637Z,65.29
2023-03-29T01:03:46.244Z,65.62
2023-03-29T01:06:17.843Z,65.88
2023-03-29T01:08:53.644Z,65.57
2023-03-29T01:11:47.077Z,65.16
2023-03-29T01:14:27.537Z,65.61
2023-03-29T01:16:54.657Z,66.02
2023-03-29T01:19:26.535Z,65.91
2023-03-29T01:22:19.917Z,65.85
2023-03-29T01:25:33.811Z,65.52
2023-03-29T01:28:04.696Z,65.95
2023-03-29T01:30:53.364Z,66.46
2023-03-29T01:33:35.469Z,66.86
2023-03-29T01:36:19.080Z,66.33
2023-03-29T01:38:49.681Z,66.72
2023-03-29T01:41:20.228Z,66.16
2023-03-29T01:43:52.945Z,66.75
2023-03-29T01:46:39.471Z,66.49
2023-03-29T01:49:35.995Z,66.62
2023-03-29T01:52:12.691Z,67.17
2023-03-29T01:54:47.322Z,66.94
2023-03-29T01:57:14.912Z,67.25
2023-03-29T01:59:44.598Z,67.75
2023-03-29T02:02:14.867Z,67.74
2023-03-29T02:04:50.229Z,68.34
2023-03-29T02:07:21.172Z,67.93
2023-03-29T02:09:52.682Z,68.08
2023-03-29T02:12:20.764Z,67.96
2023-03-29T02:14:47.801Z,68.33
2023-03-29T02:17:20.378Z,68.75
2023-03-29T02:19:51.144Z,68.64
2023-03-29T02:22:28.895Z,68.83
2023-03-29T02:24:59.317Z,69.00
2023-03-29T02:27:29.160Z,68.56
2023-03-29T02:29:56.522Z,68.29
2023-03-29T02:32:41.842Z,68.68
2023-03-29T02:35:15.053Z,68.79
2023-03-29T02:37:49.556Z,68.82
2023-03-29T02:40:18.008Z,68.96
2023-03-29T02:42:46.152Z,69.52
2023-03-29T02:45:17.354Z,68.64
2023-03-29T02:47:50.055Z,68.88
2023-03-29T02:50:17.924Z,69.71
2023-03-29T02:52:53.758Z,69.28
2023-03-29T02:55:24.553Z,69.72
2023-03-29T02:57:51.370Z,69.81
2023-03-29T03:00:19.870Z,70.18
2023-03-29T03:02:47.946Z,70.26
2023-03-29T03:05:15.117Z,70.45
2023-03-29T03:07:42.444Z,70.55
2023-03-29T03:10:10.342Z,70.84
2023-03-29T03:12:37.533Z,71.09
2023-03-29T03:15:05.979Z,71.06
2023-03-29T03:17:33.480Z,71.57
2023-03-29T03:20:00.672Z,71.90
2023-03-29T03:22:27.531Z,72.10
2023-03-29T03:24:54.694Z,72.71
2023-03-29T03:27:21.749Z,72.95
2023-03-29T03:29:49.393Z,72.80
2023-03-29T03:32:16.382Z,73.07
2023-03-29T03:34:43.693Z,73.53
2023-03-29T03:37:12.098Z,73.78
2023-03-29T03:39:39.299Z,73.56
2023-03-29T03:42:08.374Z,73.90
2023-03-29T03:44:35.869Z,74.59
2023-03-29T03:47:02.699Z,74.57
2023-03-29T03:49:30.060Z,74.91
2023-03-29T03:51:56.819Z,74.74
2023-03-29T03:54:27.201Z,74.73
2023-03-29T03:56:54.281Z,74.95
2023-03-29T03:59:22.411Z,74.75
2023-03-29T04:01:49.266Z,75.29
2023-03-29T04:04:16.638Z,75.18
2023-03-29T04:06:44.212Z,75.34
2023-03-29T04:09:11.582Z,75.50
2023-03-29T04:11:38.650Z,75.40
2023-03-29T04:14:05.645Z,75.05
2023-03-29T04:16:32.453Z,75.13
2023-03-29T04:18:59.489Z,74.96
2023-03-29T04:21:26.314Z,74.56
2023-03-29T04:23:53.347Z,74.27
2023-03-29T04:26:20.126Z,74.14
2023-03-29T04:28:47.165Z,73.62
2023-03-29T04:31:15.077Z,73.86
2023-03-29T04:33:42.549Z,73.77
2023-03-29T04:36:09.594Z,74.25
2023-03-29T04:38:36.767Z,75.37
2023-03-29T04:41:05.065Z,75.17
2023-03-29T04:43:32.369Z,74.37
2023-03-29T04:45:59.395Z,74.47
2023-03-29T04:48:26.702Z,74.30
2023-03-29T04:50:54.477Z,74.29
2023-03-29T04:53:22.321Z,73.76
2023-03-29T04:55:49.244Z,73.04
2023-03-29T04:58:16.580Z,73.15
2023-03-29T05:00:43.863Z,72.40
2023-03-29T05:03:13.499Z,72.28
2023-03-29T05:05:41.557Z,70.59
2023-03-29T05:08:09.562Z,69.50
2023-03-29T05:10:36.867Z,67.46
2023-03-29T05:13:04.133Z,67.42
2023-03-29T05:15:31.451Z,66.42
2023-03-29T05:17:59.120Z,66.10
2023-03-29T05:20:25.980Z,65.14
2023-03-29T05:22:53.700Z,65.74
2023-03-29T05:25:20.836Z,65.15
2023-03-29T05:27:48.056Z,64.17
2023-03-29T05:30:15.510Z,64.35
2023-03-29T05:32:42.866Z,65.07
2023-03-29T05:35:11.383Z,63.51
2023-03-29T05:37:39.109Z,63.08
2023-03-29T05:40:08.562Z,62.83
2023-03-29T05:42:37.891Z,59.13
2023-03-29T05:45:08.149Z,59.40
2023-03-29T05:47:36.116Z,60.44
2023-03-29T05:50:03.089Z,59.68
2023-03-29T05:52:30.200Z,59.74
2023-03-29T05:54:56.978Z,59.93
2023-03-29T05:57:24.270Z,60.05
2023-03-29T05:59:51.271Z,59.34
2023-03-29T06:02:18.931Z,57.79
2023-03-29T06:04:45.982Z,58.97
2023-03-29T06:07:13.106Z,58.18
2023-03-29T06:09:39.903Z,56.75
2023-03-29T06:12:08.587Z,56.19
2023-03-29T06:14:36.476Z,55.83
2023-03-29T06:17:03.770Z,56.65
2023-03-29T06:19:30.637Z,56.39
2023-03-29T06:21:57.789Z,56.71
2023-03-29T06:24:27.640Z,56.57
2023-03-29T06:26:54.671Z,56.08
2023-03-29T06:29:22.155Z,55.81
2023-03-29T06:31:49.314Z,55.50
2023-03-29T06:34:17.397Z,53.72
2023-03-29T06:36:45.930Z,53.71
2023-03-29T06:39:12.729Z,54.52
2023-03-29T06:41:39.865Z,52.99
2023-03-29T06:44:06.770Z,52.87
2023-03-29T06:46:34.208Z,52.63
2023-03-29T06:49:01.473Z,53.91
2023-03-29T06:51:29.424Z,50.59
2023-03-29T06:53:56.306Z,51.07
2023-03-29T06:56:23.907Z,51.25
2023-03-29T06:58:51.590Z,50.29
2023-03-29T07:01:18.647Z,51.24
2023-03-29T07:03:46.661Z,48.21
2023-03-29T07:06:15.051Z,49.23
2023-03-29T07:08:45.113Z,48.05
2023-03-29T07:11:14.245Z,51.47
2023-03-29T07:13:42.582Z,50.82
2023-03-29T07:16:14.421Z,50.86
2023-03-29T07:18:42.992Z,50.76
2023-03-29T07:21:12.380Z,51.40
2023-03-29T07:23:39.866Z,50.03
2023-03-29T07:26:08.100Z,49.93
2023-03-29T07:28:37.582Z,51.18
2023-03-29T07:31:11.704Z,48.71
2023-03-29T07:33:39.364Z,48.00
2023-03-29T07:36:07.080Z,48.97
2023-03-29T07:38:33.981Z,47.41
2023-03-29T07:41:04.829Z,47.24
2023-03-29T07:43:31.958Z,47.54
2023-03-29T07:46:05.373Z,46.03
2023-03-29T07:48:33.768Z,45.03
2023-03-29T07:51:01.508Z,45.17
2023-03-29T07:53:29.829Z,44.50
2023-03-29T07:55:57.150Z,44.54
2023-03-29T07:58:24.165Z,44.63
2023-03-29T08:00:51.263Z,44.36
2023-03-29T08:03:18.281Z,43.91
2023-03-29T08:05:45.480Z,42.55
2023-03-29T08:08:14.140Z,42.65
2023-03-29T08:10:42.532Z,42.69
2023-03-29T08:13:10.281Z,42.18
2023-03-29T08:15:39.515Z,42.60
2023-03-29T08:18:07.850Z,42.38
2023-03-29T08:20:35.281Z,41.86
2023-03-29T08:23:02.409Z,41.29
2023-03-29T08:25:29.899Z,42.71
2023-03-29T08:27:56.884Z,40.92
2023-03-29T08:30:24.365Z,39.64
2023-03-29T08:32:53.584Z,38.33
2023-03-29T08:35:22.691Z,36.55
2023-03-29T08:37:49.646Z,35.77
2023-03-29T08:40:21.589Z,37.03
2023-03-29T08:42:51.054Z,35.80
2023-03-29T08:45:41.300Z,36.37
2023-03-29T08:48:28.892Z,33.85
2023-03-29T08:51:12.998Z,34.65
2023-03-29T08:53:49.049Z,34.96
2023-03-29T08:56:20.878Z,36.37
2023-03-29T08:58:50.425Z,38.53
2023-03-29T09:01:17.845Z,36.79
2023-03-29T09:04:06.734Z,35.54
2023-03-29T09:06:33.959Z,34.80
2023-03-29T09:09:01.738Z,37.38
2023-03-29T09:11:49.813Z,35.16
2023-03-29T09:14:55.695Z,34.89
2023-03-29T09:17:34.336Z,35.82
2023-03-29T09:20:08.219Z,34.03
2023-03-29T09:23:09.085Z,36.74
2023-03-29T09:26:05.469Z,35.08
2023-03-29T09:28:52.137Z,33.42
2023-03-29T09:31:23.411Z,34.15
2023-03-29T09:33:59.871Z,35.11
2023-03-29T09:36:37.072Z,35.04
2023-03-29T09:39:05.736Z,34.16
2023-03-29T09:41:42.681Z,35.44
2023-03-29T09:44:31.112Z,35.78
2023-03-29T09:47:06.815Z,36.10
2023-03-29T09:49:38.327Z,34.61
2023-03-29T09:52:12.011Z,35.14
2023-03-29T09:54:39.309Z,35.28
2023-03-29T09:57:07.098Z,36.21
2023-03-29T09:59:34.238Z,33.93
2023-03-29T10:02:09.646Z,33.91
2023-03-29T10:04:37.209Z,33.24
2023-03-29T10:07:05.743Z,33.78
2023-03-29T10:09:34.161Z,33.85
2023-03-29T10:12:05.750Z,34.61
2023-03-29T10:14:38.302Z,34.68
2023-03-29T10:17:15.669Z,34.07
2023-03-29T10:19:52.171Z,33.90
2023-03-29T10:22:23.349Z,33.33
2023-03-29T10:24:52.797Z,32.37
2023-03-29T10:27:25.704Z,32.31
2023-03-29T10:29:54.312Z,33.49
2023-03-29T10:32:52.121Z,34.68
2023-03-29T10:35:33.435Z,33.67
2023-03-29T10:38:04.924Z,33.34
2023-03-29T10:40:37.351Z,31.69
2023-03-29T10:43:26.312Z,32.05
2023-03-29T10:45:55.900Z,32.48
2023-03-29T10:48:30.486Z,30.22
2023-03-29T10:51:01.065Z,30.72
2023-03-29T10:53:38.088Z,30.73
2023-03-29T10:56:27.115Z,31.90
2023-03-29T10:59:09.109Z,30.65
2023-03-29T11:01:49.455Z,33.50
2023-03-29T11:04:41.041Z,29.94
2023-03-29T11:07:35.611Z,29.99
2023-03-29T11:10:05.090Z,30.00
2023-03-29T11:12:49.368Z,30.93
2023-03-29T11:15:19.155Z,28.96
2023-03-29T11:18:01.322Z,29.08
2023-03-29T11:20:52.861Z,29.43
2023-03-29T11:23:19.888Z,30.10
2023-03-29T11:26:04.308Z,30.91
2023-03-29T11:28:49.583Z,29.77
2023-03-29T11:31:48.495Z,30.58
2023-03-29T11:35:01.590Z,28.49
2023-03-29T11:37:50.424Z,30.97
2023-03-29T11:40:44.967Z,31.74
2023-03-29T11:43:32.928Z,31.75
2023-03-29T11:46:08.886Z,31.77
2023-03-29T11:48:41.898Z,32.05
2023-03-29T11:51:13.165Z,34.17
2023-03-29T11:53:42.843Z,34.44
2023-03-29T11:56:17.458Z,33.76
2023-03-29T11:58:50.585Z,31.90
2023-03-29T12:01:46.403Z,31.35
2023-03-29T12:04:23.091Z,31.17
2023-03-29T12:06:57.478Z,30.76
2023-03-29T12:09:28.593Z,30.25
2023-03-29T12:12:15.568Z,31.50
2023-03-29T12:14:52.968Z,31.55
2023-03-29T12:17:28.190Z,30.53
2023-03-29T12:20:10.386Z,29.57
2023-03-29T12:22:38.142Z,30.77
2023-03-29T12:25:09.687Z,31.27
2023-03-29T12:27:56.192Z,32.16
2023-03-29T12:30:34.155Z,31.47
2023-03-29T12:33:31.427Z,30.09
2023-03-29T12:36:07.447Z,30.37
2023-03-29T12:38:35.862Z,29.13
2023-03-29T12:41:12.547Z,27.47
2023-03-29T12:43:43.392Z,26.22
2023-03-29T12:46:19.096Z,25.36
2023-03-29T12:48:51.007Z,26.49
2023-03-29T12:51:22.333Z,26.39
2023-03-29T12:53:53.158Z,26.48
2023-03-29T12:56:23.693Z,27.55
2023-03-29T12:59:16.880Z,26.98
2023-03-29T13:01:58.635Z,25.74
2023-03-29T13:05:00.316Z,27.54
2023-03-29T13:07:33.873Z,28.25
2023-03-29T13:10:03.693Z,27.57
2023-03-29T13:12:44.682Z,28.14
2023-03-29T13:15:14.728Z,28.76
2023-03-29T13:18:19.322Z,29.58
2023-03-29T13:20:50.901Z,28.57
2023-03-29T13:23:29.965Z,29.82
2023-03-29T13:26:32.910Z,29.43
2023-03-29T13:29:08.377Z,30.18
2023-03-29T13:31:39.832Z,29.30
2023-03-29T13:34:35.450Z,30.36
2023-03-29T13:37:46.573Z,32.71
2023-03-29T13:40:44.327Z,33.58
2023-03-29T13:43:30.853Z,33.35
2023-03-29T13:45:57.587Z,32.09
2023-03-29T13:48:36.814Z,30.78
2023-03-29T13:51:18.972Z,28.15
2023-03-29T13:53:52.966Z,28.45
2023-03-29T13:56:27.183Z,27.70
2023-03-29T13:59:03.675Z,26.97
2023-03-29T14:01:43.607Z,26.52
2023-03-29T14:04:17.433Z,26.76
2023-03-29T14:06:52.799Z,28.81
2023-03-29T14:09:28.214Z,28.78
2023-03-29T14:11:55.466Z,27.88
2023-03-29T14:14:28.583Z,28.85
2023-03-29T14:16:56.729Z,28.64
2023-03-29T14:19:38.224Z,27.96
2023-03-29T14:22:10.885Z,30.05
2023-03-29T14:24:40.397Z,29.02
2023-03-29T14:27:10.230Z,27.15
2023-03-29T14:29:37.628Z,27.92
2023-03-29T14:32:18.802Z,31.42
2023-03-29T14:34:50.885Z,34.26
2023-03-29T14:37:22.868Z,35.92
2023-03-29T14:39:50.857Z,36.61
2023-03-29T14:42:23.182Z,37.53
2023-03-29T14:44:51.102Z,37.58
2023-03-29T14:47:27.448Z,38.80
2023-03-29T14:49:57.033Z,39.11
2023-03-29T14:52:25.881Z,40.03
2023-03-29T14:54:56.643Z,39.97
2023-03-29T14:57:26.361Z,39.90
2023-03-29T14:59:59.040Z,41.53
2023-03-29T15:02:29.655Z,42.13
2023-03-29T15:05:06.034Z,42.46
2023-03-29T15:07:35.160Z,41.78
2023-03-29T15:10:06.543Z,41.79
2023-03-29T15:12:34.247Z,42.08
2023-03-29T15:15:02.619Z,42.79
2023-03-29T15:17:50.241Z,42.22
2023-03-29T15:20:24.564Z,43.10
2023-03-29T15:23:04.582Z,42.77
2023-03-29T15:25:37.388Z,42.49
2023-03-29T15:28:04.717Z,42.51
2023-03-29T15:30:38.138Z,42.96
2023-03-29T15:33:20.961Z,42.97
2023-03-29T15:35:51.314Z,43.74
2023-03-29T15:38:21.747Z,42.97
2023-03-29T15:40:50.801Z,42.59
2023-03-29T15:43:19.789Z,42.35
2023-03-29T15:45:47.812Z,43.05
2023-03-29T15:48:17.861Z,42.19
2023-03-29T15:50:45.279Z,42.62
2023-03-29T15:53:15.608Z,42.70
2023-03-29T15:55:46.230Z,42.92
2023-03-29T15:58:16.254Z,43.60
2023-03-29T16:00:48.327Z,43.50
2023-03-29T16:03:16.306Z,43.38
2023-03-29T16:05:45.372Z,42.88
2023-03-29T16:08:13.267Z,43.03
2023-03-29T16:10:41.456Z,42.88
2023-03-29T16:13:12.224Z,43.05
2023-03-29T16:15:40.749Z,44.26
2023-03-29T16:18:07.736Z,43.86
2023-03-29T16:20:34.914Z,43.58
2023-03-29T16:23:02.376Z,43.72
2023-03-29T16:25:29.883Z,44.12
2023-03-29T16:27:56.672Z,43.67
2023-03-29T16:30:24.951Z,44.07
2023-03-29T16:32:51.836Z,44.48
2023-03-29T16:35:30.209Z,44.67
2023-03-29T16:37:57.104Z,44.65
2023-03-29T16:40:24.873Z,44.63
2023-03-29T16:42:51.955Z,45.29
2023-03-29T16:45:19.679Z,45.39
2023-03-29T16:47:46.617Z,44.66
2023-03-29T16:50:16.398Z,44.69
2023-03-29T16:52:43.709Z,44.81
2023-03-29T16:55:12.870Z,45.40
2023-03-29T16:57:40.302Z,45.79
2023-03-29T17:00:10.843Z,45.79
2023-03-29T17:02:37.653Z,45.46
2023-03-29T17:05:06.101Z,45.67
2023-03-29T17:07:33.583Z,46.02
2023-03-29T17:10:00.727Z,46.07
2023-03-29T17:12:27.543Z,46.03
2023-03-29T17:14:54.605Z,46.09
2023-03-29T17:17:21.423Z,46.17
2023-03-29T17:19:48.547Z,46.53
2023-03-29T17:22:15.318Z,46.92
2023-03-29T17:24:43.596Z,47.14
2023-03-29T17:27:10.409Z,47.35
2023-03-29T17:29:37.568Z,47.25
2023-03-29T17:32:04.523Z,48.19
2023-03-29T17:34:33.073Z,48.32
2023-03-29T17:37:00.556Z,48.56
2023-03-29T17:39:32.148Z,50.28
2023-03-29T17:42:07.300Z,51.04
2023-03-29T17:44:34.740Z,51.91
2023-03-29T17:47:01.706Z,52.45
2023-03-29T17:49:29.030Z,52.42
2023-03-29T17:51:56.196Z,53.25
2023-03-29T17:54:23.252Z,54.25
2023-03-29T17:56:50.555Z,55.07
2023-03-29T17:59:17.879Z,55.69
2023-03-29T18:01:44.811Z,56.05
2023-03-29T18:04:12.473Z,56.95
2023-03-29T18:06:39.412Z,56.53
2023-03-29T18:09:06.488Z,57.57
2023-03-29T18:11:33.342Z,58.23
2023-03-29T18:14:01.237Z,57.87
2023-03-29T18:16:28.768Z,58.28
2023-03-29T18:18:55.867Z,58.10
2023-03-29T18:21:25.479Z,58.62
2023-03-29T18:23:54.359Z,58.87
2023-03-29T18:26:22.900Z,59.12
2023-03-29T18:28:50.963Z,58.86
2023-03-29T18:31:20.892Z,59.51
2023-03-29T18:33:48.276Z,59.68
2023-03-29T18:36:15.576Z,60.10
2023-03-29T18:38:43.696Z,60.63
2023-03-29T18:41:13.441Z,61.11
2023-03-29T18:43:41.540Z,60.83
2023-03-29T18:46:08.721Z,61.21
2023-03-29T18:48:39.037Z,61.01
2023-03-29T18:51:07.460Z,61.70
2023-03-29T18:53:35.843Z,61.75
2023-03-29T18:56:04.413Z,62.17
2023-03-29T18:58:31.729Z,62.14
2023-03-29T19:01:03.684Z,62.33
2023-03-29T19:03:32.260Z,62.42
2023-03-29T19:05:59.146Z,62.87
2023-03-29T19:08:29.098Z,63.18
2023-03-29T19:11:07.760Z,63.28
2023-03-29T19:13:35.598Z,63.41
2023-03-29T19:16:02.895Z,63.62
2023-03-29T19:18:30.373Z,63.68
2023-03-29T19:20:57.186Z,64.02
2023-03-29T19:23:28.414Z,63.61
2023-03-29T19:26:00.716Z,64.27
2023-03-29T19:28:28.679Z,64.18
2023-03-29T19:30:58.001Z,64.22
2023-03-29T19:33:25.497Z,63.83
2023-03-29T19:35:52.861Z,63.88
2023-03-29T19:38:20.672Z,64.60
2023-03-29T19:40:49.353Z,65.01
2023-03-29T19:43:16.918Z,65.35
2023-03-29T19:45:44.937Z,65.86
2023-03-29T19:48:21.769Z,65.38
2023-03-29T19:50:50.275Z,65.21
2023-03-29T19:53:17.784Z,65.75
2023-03-29T19:55:45.316Z,66.15
2023-03-29T19:58:13.141Z,65.98
2023-03-29T20:00:41.868Z,65.92
2023-03-29T20:03:09.947Z,66.01
2023-03-29T20:05:38.524Z,65.77
2023-03-29T20:08:06.742Z,65.70
2023-03-29T20:10:34.665Z,65.57
2023-03-29T20:13:02.388Z,66.24
2023-03-29T20:15:29.229Z,66.49
2023-03-29T20:18:00.418Z,65.96
2023-03-29T20:20:28.455Z,66.05
2023-03-29T20:23:04.546Z,66.39
2023-03-29T20:25:32.869Z,66.28
2023-03-29T20:28:00.570Z,66.11
2023-03-29T20:30:27.354Z,66.47
2023-03-29T20:32:54.780Z,66.26
2023-03-29T20:35:21.782Z,66.91
2023-03-29T20:37:48.912Z,66.92
2023-03-29T20:40:16.004Z,67.09
2023-03-29T20:42:46.234Z,66.67
2023-03-29T20:45:18.816Z,67.56
2023-03-29T20:47:50.293Z,66.28
2023-03-29T20:50:20.372Z,65.43
2023-03-29T20:52:47.475Z,64.87
2023-03-29T20:55:22.219Z,64.82
2023-03-29T20:57:51.329Z,65.63
2023-03-29T21:00:19.803Z,65.49
2023-03-29T21:02:47.263Z,65.77
2023-03-29T21:05:14.336Z,65.79
2023-03-29T21:07:42.364Z,66.04
2023-03-29T21:10:09.873Z,66.25
2023-03-29T21:12:37.243Z,67.21
2023-03-29T21:15:05.537Z,67.37
2023-03-29T21:17:32.730Z,68.21
2023-03-29T21:19:59.553Z,68.50
2023-03-29T21:22:26.590Z,68.54
2023-03-29T21:24:53.401Z,68.74
2023-03-29T21:27:20.466Z,68.90
2023-03-29T21:29:48.068Z,69.70
2023-03-29T21:32:15.477Z,69.64
2023-03-29T21:34:42.237Z,69.61
2023-03-29T21:37:09.374Z,69.78
2023-03-29T21:39:36.300Z,69.78
2023-03-29T21:42:03.731Z,69.98
2023-03-29T21:44:32.519Z,69.62
2023-03-29T21:47:00.963Z,69.55
2023-03-29T21:49:27.824Z,70.08
2023-03-29T21:51:54.914Z,70.89
2023-03-29T21:54:21.804Z,70.08
2023-03-29T21:56:48.829Z,70.34
2023-03-29T21:59:16.057Z,69.23
2023-03-29T22:01:43.125Z,69.64
2023-03-29T22:04:10.015Z,69.54
2023-03-29T22:06:37.306Z,70.04
2023-03-29T22:09:05.184Z,69.88
2023-03-29T22:11:32.378Z,70.13
2023-03-29T22:13:59.221Z,70.15
2023-03-29T22:16:28.367Z,68.09
2023-03-29T22:18:55.291Z,69.62
2023-03-29T22:21:25.238Z,70.56
2023-03-29T22:23:55.133Z,69.24
2023-03-29T22:26:27.612Z,69.01
2023-03-29T22:28:55.420Z,68.27
2023-03-29T22:31:27.205Z,68.91
2023-03-29T22:33:55.114Z,68.00
2023-03-29T22:36:24.822Z,68.58
2023-03-29T22:38:51.835Z,69.07
2023-03-29T22:41:20.371Z,70.03
2023-03-29T22:43:47.415Z,70.72
2023-03-29T22:46:16.198Z,68.86
2023-03-29T22:48:43.259Z,68.82
2023-03-29T22:51:10.621Z,69.75
2023-03-29T22:53:37.431Z,68.60
2023-03-29T22:56:04.788Z,68.60
2023-03-29T22:58:31.772Z,68.81
2023-03-29T23:00:58.960Z,69.15
2023-03-29T23:03:26.555Z,69.64
2023-03-29T23:05:56.373Z,69.95
2023-03-29T23:08:26.325Z,70.76
2023-03-29T23:10:53.372Z,70.24
2023-03-29T23:13:23.538Z,70.90
2023-03-29T23:15:51.707Z,71.20
2023-03-29T23:18:21.207Z,71.52
2023-03-29T23:20:50.589Z,72.09
2023-03-29T23:23:19.054Z,72.38
2023-03-29T23:25:47.568Z,72.93
2023-03-29T23:28:17.018Z,72.44
2023-03-29T23:30:44.214Z,72.25
2023-03-29T23:33:11.739Z,72.89
2023-03-29T23:35:38.856Z,73.21
2023-03-29T23:38:05.683Z,72.66
2023-03-29T23:40:33.256Z,73.01
2023-03-29T23:43:00.159Z,74.26
2023-03-29T23:45:30.150Z,75.32
2023-03-29T23:47:57.399Z,75.90
2023-03-29T23:50:28.496Z,76.29
2023-03-29T23:52:55.467Z,75.35
2023-03-29T23:55:25.445Z,76.38
2023-03-29T23:57:52.338Z,76.32
